This is the latest recevied weather packets stored in our database for station/object K0CPM-2. If no packets are shown the sender has not sent any weather packets the latest 10 day(s).
| Time | Temp. | Humidity | Pressure | Rain* | Wind** | Luminosity | Snow |
|---|---|---|---|---|---|---|---|
| 1778201104 | 23.89° C | 86% | 1010.4 hPa | 0 mm | - | - | - |
| 1778200202 | 24.44° C | 86% | 1010.5 hPa | 0 mm | - | - | - |
| 1778199301 | 24.44° C | 85% | 1010.5 hPa | 0 mm | - | - | - |
| 1778198462 | 24.44° C | 85% | 1010.5 hPa | 0 mm | - | - | - |
| 1778197561 | 24.44° C | 84% | 1010.5 hPa | 0 mm | - | - | - |
| 1778196663 | 24.44° C | 83% | 1010.3 hPa | 0 mm | - | - | - |
| 1778195761 | 24.44° C | 82% | 1010.4 hPa | 0 mm | - | - | - |
| 1778194861 | 25° C | 80% | 1010.6 hPa | 0 mm | - | - | - |
| 1778193965 | 25.56° C | 78% | 1010.5 hPa | 0 mm | - | - | - |
| 1778193060 | 26.11° C | 76% | 1010.2 hPa | 0 mm | - | - | - |
| 1778192155 | 26.11° C | 78% | 1010.3 hPa | 0 mm | - | - | - |
| 1778191252 | 26.11° C | 79% | 1010.1 hPa | 0 mm | - | - | - |
| 1778190353 | 25° C | 81% | 1010.1 hPa | 0 mm | - | - | - |
| 1778189451 | 24.44° C | 83% | 1010 hPa | 0 mm | - | - | - |
| 1778188552 | 23.89° C | 84% | 1010.3 hPa | 0 mm | - | - | - |
| 1778187673 | 23.89° C | 85% | 1010.3 hPa | 0 mm | - | - | - |
| 1778186753 | 23.33° C | 85% | 1010.4 hPa | 0 mm | - | - | - |
| 1778185851 | 23.33° C | 86% | 1010.4 hPa | 0 mm | - | - | - |
| 1778184946 | 23.33° C | 85% | 1010.5 hPa | 0 mm | - | - | - |
| 1778184061 | 23.33° C | 84% | 1010.5 hPa | 0 mm | - | - | - |
| 1778183146 | 23.89° C | 84% | 1010.6 hPa | 0 mm | - | - | - |
| 1778182267 | 23.89° C | 84% | 1010.7 hPa | 0 mm | - | - | - |
| 1778181353 | 23.89° C | 85% | 1010.8 hPa | 0 mm | - | - | - |
| 1778180444 | 23.33° C | 87% | 1010.9 hPa | 0 mm | - | - | - |
| 1778179543 | 23.33° C | 84% | 1011 hPa | 0 mm | - | - | - |
* Rain latest hour (hover to see other rain measurements)
** Current wind speed in m/s (hover to see current wind gust speed)